TimeCST,TemperatureF,Dew PointF,Humidity,Sea Level PressureIn,VisibilityMPH,Wind Direction,Wind SpeedMPH,Gust SpeedMPH,PrecipitationIn,Events,Conditions,WindDirDegrees,DateUTC
12:15 AM,14.4,10.0,83,29.98,10.0,West,10.4,-,N/A,,Mostly Cloudy,260,2013-12-15 06:15:00
12:35 AM,16.2,11.3,81,29.98,10.0,West,9.2,-,N/A,,Mostly Cloudy,260,2013-12-15 06:35:00
12:55 AM,15.8,11.3,82,29.97,10.0,WSW,11.5,-,N/A,,Scattered Clouds,250,2013-12-15 06:55:00
1:15 AM,15.6,10.9,82,29.97,10.0,West,11.5,-,N/A,,Scattered Clouds,260,2013-12-15 07:15:00
1:35 AM,16.9,12.2,82,29.97,10.0,West,12.7,-,N/A,,Overcast,260,2013-12-15 07:35:00
1:55 AM,18.5,12.7,78,29.97,10.0,West,16.1,-,N/A,,Overcast,270,2013-12-15 07:55:00
2:15 AM,18.9,12.6,76,29.97,10.0,West,16.1,-,N/A,,Overcast,260,2013-12-15 08:15:00
2:35 AM,18.1,12.0,77,29.98,10.0,West,16.1,-,N/A,,Scattered Clouds,260,2013-12-15 08:35:00
2:55 AM,17.2,10.8,76,29.98,10.0,West,24.2,29.9,N/A,,Clear,280,2013-12-15 08:55:00
3:15 AM,16.5,9.9,75,29.99,5.0,West,24.2,-,N/A,,Haze,280,2013-12-15 09:15:00
3:35 AM,15.8,8.6,73,29.99,7.0,West,19.6,25.3,N/A,Snow,Light Snow,280,2013-12-15 09:35:00
3:55 AM,15.6,9.0,75,29.98,4.0,West,18.4,24.2,N/A,Snow,Light Snow,280,2013-12-15 09:55:00
4:15 AM,15.3,8.2,74,29.98,10.0,West,18.4,-,N/A,,Overcast,280,2013-12-15 10:15:00
4:35 AM,14.9,7.2,71,29.99,10.0,West,21.9,27.6,N/A,,Overcast,280,2013-12-15 10:35:00
4:55 AM,14.5,6.4,70,30.00,10.0,West,18.4,-,N/A,,Overcast,280,2013-12-15 10:55:00
5:15 AM,12.7,5.5,73,30.00,10.0,West,15.0,-,N/A,,Mostly Cloudy,270,2013-12-15 11:15:00
5:35 AM,11.8,4.8,73,30.01,10.0,West,13.8,-,N/A,,Clear,280,2013-12-15 11:35:00
5:55 AM,11.1,3.9,73,30.01,10.0,West,12.7,-,N/A,,Clear,280,2013-12-15 11:55:00
6:15 AM,10.4,3.6,74,30.02,10.0,West,15.0,-,N/A,,Clear,280,2013-12-15 12:15:00
6:35 AM,10.4,3.2,73,30.03,10.0,West,15.0,-,N/A,,Clear,280,2013-12-15 12:35:00
6:55 AM,10.0,2.5,72,30.03,10.0,West,15.0,-,N/A,,Clear,280,2013-12-15 12:55:00
7:15 AM,9.5,2.3,73,30.04,10.0,West,11.5,-,N/A,,Clear,270,2013-12-15 13:15:00
7:35 AM,10.4,3.2,73,30.04,10.0,West,12.7,-,N/A,,Scattered Clouds,280,2013-12-15 13:35:00
7:55 AM,11.5,3.4,70,30.04,10.0,West,10.4,-,N/A,,Mostly Cloudy,260,2013-12-15 13:55:00
8:15 AM,11.3,4.1,73,30.04,10.0,West,12.7,-,N/A,,Mostly Cloudy,270,2013-12-15 14:15:00
8:35 AM,11.8,4.1,71,30.04,10.0,West,15.0,-,N/A,,Mostly Cloudy,260,2013-12-15 14:35:00
8:55 AM,12.2,4.6,72,30.04,10.0,West,15.0,-,N/A,,Mostly Cloudy,280,2013-12-15 14:55:00
9:15 AM,12.9,4.8,70,30.05,10.0,West,15.0,-,N/A,,Mostly Cloudy,270,2013-12-15 15:15:00
9:35 AM,13.1,4.8,70,30.06,10.0,West,20.7,-,N/A,,Overcast,280,2013-12-15 15:35:00
9:55 AM,13.6,5.0,68,30.06,10.0,West,18.4,-,N/A,,Overcast,280,2013-12-15 15:55:00
10:15 AM,13.5,4.6,68,30.06,10.0,WNW,20.7,-,N/A,,Overcast,290,2013-12-15 16:15:00
10:35 AM,13.6,4.3,66,30.05,10.0,West,19.6,-,N/A,,Overcast,280,2013-12-15 16:35:00
10:55 AM,13.3,3.9,66,30.06,10.0,West,16.1,-,N/A,,Overcast,280,2013-12-15 16:55:00
11:15 AM,13.5,3.9,66,30.06,10.0,West,19.6,-,N/A,,Overcast,280,2013-12-15 17:15:00
11:35 AM,13.5,4.5,67,30.05,10.0,West,16.1,-,N/A,,Overcast,280,2013-12-15 17:35:00
11:55 AM,13.6,4.1,66,30.04,10.0,WNW,18.4,21.9,N/A,,Overcast,290,2013-12-15 17:55:00
12:15 PM,13.8,4.6,67,30.04,10.0,WNW,16.1,-,N/A,,Overcast,290,2013-12-15 18:15:00
12:35 PM,13.6,4.5,67,30.05,10.0,WNW,18.4,-,N/A,,Overcast,290,2013-12-15 18:35:00
12:55 PM,13.8,4.5,66,30.05,10.0,West,13.8,-,N/A,,Overcast,280,2013-12-15 18:55:00
1:15 PM,13.8,3.7,64,30.05,10.0,West,15.0,-,N/A,,Overcast,280,2013-12-15 19:15:00
1:35 PM,14.0,4.3,65,30.05,10.0,West,16.1,-,N/A,,Overcast,280,2013-12-15 19:35:00
1:55 PM,14.0,3.9,64,30.04,10.0,West,12.7,-,N/A,,Overcast,270,2013-12-15 19:55:00
2:15 PM,14.0,3.9,64,30.04,10.0,West,11.5,-,N/A,,Overcast,270,2013-12-15 20:15:00
2:35 PM,14.7,4.6,64,30.05,10.0,WNW,13.8,-,N/A,,Overcast,290,2013-12-15 20:35:00
2:55 PM,14.7,5.0,65,30.06,10.0,WNW,15.0,-,N/A,,Overcast,290,2013-12-15 20:55:00
3:15 PM,14.4,4.6,65,30.06,10.0,WNW,11.5,-,N/A,,Overcast,290,2013-12-15 21:15:00
3:35 PM,14.4,4.6,65,30.06,10.0,WNW,12.7,-,N/A,,Overcast,290,2013-12-15 21:35:00
3:55 PM,14.4,5.0,66,30.07,10.0,West,15.0,-,N/A,,Overcast,280,2013-12-15 21:55:00
4:15 PM,14.4,5.4,67,30.07,10.0,West,10.4,-,N/A,,Overcast,280,2013-12-15 22:15:00
4:35 PM,14.5,5.5,68,30.08,10.0,West,9.2,-,N/A,,Overcast,280,2013-12-15 22:35:00
4:55 PM,14.0,4.5,66,30.08,10.0,West,10.4,-,N/A,,Overcast,280,2013-12-15 22:55:00
5:15 PM,13.8,4.5,66,30.08,10.0,West,9.2,-,N/A,,Overcast,270,2013-12-15 23:15:00
5:35 PM,13.6,4.1,66,30.08,10.0,West,8.1,-,N/A,,Mostly Cloudy,280,2013-12-15 23:35:00
5:55 PM,12.0,4.1,71,30.08,10.0,West,5.8,-,N/A,,Scattered Clouds,280,2013-12-15 23:55:00
6:15 PM,11.5,3.4,70,30.09,10.0,West,4.6,-,N/A,,Mostly Cloudy,280,2013-12-16 00:15:00
6:35 PM,12.2,4.8,72,30.10,10.0,WNW,4.6,-,N/A,,Overcast,290,2013-12-16 00:35:00
6:55 PM,13.1,5.0,70,30.09,10.0,WNW,4.6,-,N/A,,Overcast,290,2013-12-16 00:55:00
7:15 PM,13.8,5.5,70,30.10,10.0,WNW,5.8,-,N/A,,Overcast,290,2013-12-16 01:15:00
7:35 PM,14.0,5.4,69,30.10,10.0,WNW,6.9,-,N/A,,Overcast,290,2013-12-16 01:35:00
7:55 PM,14.0,4.8,67,30.11,10.0,WNW,5.8,-,N/A,,Overcast,300,2013-12-16 01:55:00
8:15 PM,14.0,4.8,67,30.11,10.0,NW,5.8,-,N/A,,Overcast,310,2013-12-16 02:15:00
8:35 PM,14.2,4.8,66,30.12,10.0,WNW,6.9,-,N/A,,Overcast,300,2013-12-16 02:35:00
8:55 PM,14.0,4.6,66,30.11,10.0,WNW,5.8,-,N/A,,Overcast,300,2013-12-16 02:55:00
9:15 PM,14.0,4.8,67,30.11,10.0,WNW,5.8,-,N/A,,Overcast,290,2013-12-16 03:15:00
9:35 PM,14.0,4.6,66,30.11,10.0,WNW,6.9,-,N/A,,Overcast,290,2013-12-16 03:35:00
9:55 PM,14.0,5.0,67,30.11,10.0,WNW,6.9,-,N/A,,Overcast,300,2013-12-16 03:55:00
10:15 PM,14.0,4.6,66,30.11,10.0,NW,6.9,-,N/A,,Overcast,310,2013-12-16 04:15:00
10:35 PM,14.0,4.6,66,30.11,10.0,WNW,8.1,-,N/A,,Overcast,300,2013-12-16 04:35:00
10:55 PM,14.0,5.0,67,30.11,10.0,WNW,5.8,-,N/A,Snow,Light Snow,290,2013-12-16 04:55:00
11:15 PM,14.0,5.5,69,30.11,7.0,West,5.8,-,N/A,Snow,Light Snow,280,2013-12-16 05:15:00
11:35 PM,14.0,5.9,70,30.12,7.0,West,5.8,-,N/A,Snow,Light Snow,280,2013-12-16 05:35:00
11:55 PM,13.8,6.6,73,30.11,3.0,West,4.6,-,N/A,Snow,Light Snow,280,2013-12-16 05:55:00